Happy Valentine's Day! 

Flight Track Log - Related Links

Times and Time Zones

All times are in EDT time to prevent confusion due to time zone crossing. See the ASA601 flight status page for this flight to view local times or setup timezone preferences in your user account.


Time Position Orientation Groundspeed Altitude Reporting Facility
EDT Latitude Longitude Course Direction KTS MPH feet Rate Location/Type
Thu 01:29:26 AM 36.0689 -115.2450 310° West 227 261 5,900  Level Los Angeles Center
Thu 01:30:09 AM 36.0225 -115.2789 211° Southwest 280 322 7,000 696 Climbing Los Angeles Center
Thu 01:31:18 AM 35.9494 -115.3211 205° Southwest 274 315 7,200 923 Climbing Los Angeles Center
Thu 01:32:19 AM 35.8953 -115.3933 227° Southwest 280 322 9,000 1,721 Climbing Los Angeles Center
Thu 01:33:20 AM 35.8867 -115.4886 264° West 290 334 10,700 2,607 Climbing Los Angeles Center
Thu 01:34:00 AM 36.0019 -116.0862 310° West  Level FlightAware Approximate
Thu 01:34:21 AM 35.8900 -115.6117 272° West 330 380 14,300  Level Los Angeles Center
Thu 01:35:22 AM 35.8911 -115.7356 271° West 358 412 18,300 3,787 Climbing Los Angeles Center
Thu 01:36:23 AM 35.8933 -115.8744 271° West 378 435 22,000 3,246 Climbing Los Angeles Center
Thu 01:37:24 AM 35.9181 -115.9944 284° West 410 472 24,900 3,049 Climbing Los Angeles Center
Thu 01:38:25 AM 36.0150 -116.1069 317° Northwest 431 496 28,200 2,852 Climbing Los Angeles Center
Thu 01:39:26 AM 36.1067 -116.2039 320° Northwest 432 497 30,700 2,164 Climbing Los Angeles Center
Thu 01:40:27 AM 36.1944 -116.2800 325° Northwest 440 506 32,600 2,164 Climbing Los Angeles Center
Thu 01:41:28 AM 36.2928 -116.3706 323° Northwest 442 509 35,100 2,213 Climbing Los Angeles Center
Thu 01:42:29 AM 36.3906 -116.4606 323° Northwest 441 507 37,100 1,770 Climbing Los Angeles Center
Thu 01:43:30 AM 36.5078 -116.5672 324° Northwest 438 504 38,700 1,426 Climbing Los Angeles Center
Thu 01:44:31 AM 36.6022 -116.6556 323° Northwest 444 511 40,000 645 Climbing Los Angeles Center
Thu 01:45:31 AM 36.6983 -116.7461 323° Northwest 435 501 40,000  Level Los Angeles Center
Thu 01:46:32 AM 36.7742 -116.8167 323° Northwest 428 493 40,000  Level Los Angeles Center
Thu 01:47:33 AM 36.8889 -116.9231 323° Northwest 427 491 40,000  Level Los Angeles Center
Thu 01:47:53 AM 36.9258 -116.9597 322° Northwest 427 491 40,000  Level Oakland Center
Thu 01:48:53 AM 37.0211 -117.0492 323° Northwest 427 491 40,000  Level Oakland Center
Thu 01:49:54 AM 37.1175 -117.1411 323° Northwest 433 498 40,000  Level Oakland Center
Thu 01:50:55 AM 37.2147 -117.2339 323° Northwest 437 503 40,000  Level Oakland Center
Thu 01:51:55 AM 37.3256 -117.3003 335° Northwest 443 510 40,000  Level Oakland Center
Thu 01:52:56 AM 37.4394 -117.3608 337° Northwest 443 510 40,000  Level Oakland Center
Thu 01:53:56 AM 37.5533 -117.4233 336° Northwest 445 512 40,000  Level Oakland Center
Thu 01:54:57 AM 37.6667 -117.4864 336° Northwest 442 509 40,000  Level Oakland Center
Thu 01:55:57 AM 37.7803 -117.5478 337° Northwest 440 506 40,000  Level Oakland Center
Thu 01:56:58 AM 37.8933 -117.6111 336° Northwest 440 506 40,000  Level Oakland Center
Thu 01:57:59 AM 38.0047 -117.6714 337° Northwest 433 498 40,000  Level Oakland Center
Thu 01:58:59 AM 38.1128 -117.7328 336° Northwest 423 487 40,000  Level Oakland Center
Thu 02:00:00 AM 38.2208 -117.7933 336° Northwest 421 484 40,000  Level Oakland Center
Thu 02:01:00 AM 38.3303 -117.8547 336° Northwest 427 491 40,000  Level Oakland Center
Thu 02:02:01 AM 38.4408 -117.9172 336° Northwest 430 495 40,000  Level Oakland Center
Thu 02:03:01 AM 38.5500 -117.9781 336° Northwest 427 491 40,000  Level Oakland Center
Thu 02:04:02 AM 38.6622 -118.0422 336° Northwest 426 490 40,000  Level Oakland Center
Thu 02:05:42 AM 38.8333 -118.1406 336° Northwest 429 494 40,000  Level Salt Lake Center
Thu 02:06:03 AM 38.8803 -118.1667 337° Northwest 428 493 40,000  Level Oakland Center
Thu 02:07:03 AM 38.9889 -118.2283 336° Northwest 427 491 40,000  Level Oakland Center
Thu 02:08:04 AM 39.0958 -118.2917 335° Northwest 425 489 40,000  Level Oakland Center
Thu 02:09:04 AM 39.2033 -118.3533 336° Northwest 425 489 40,000  Level Oakland Center
Thu 02:10:05 AM 39.3097 -118.4144 336° Northwest 424 488 40,000  Level Oakland Center
Thu 02:11:05 AM 39.4181 -118.4772 336° Northwest 426 490 40,000  Level Oakland Center
Thu 02:12:46 AM 39.6075 -118.5889 336° Northwest 427 491 40,000  Level Salt Lake Center
Thu 02:13:06 AM 39.6500 -118.6142 335° Northwest 425 489 40,000  Level Oakland Center
Thu 02:14:07 AM 39.7569 -118.6775 336° Northwest 426 490 40,000  Level Oakland Center
Thu 02:15:08 AM 39.8647 -118.7403 336° Northwest 425 489 40,000  Level Oakland Center
Thu 02:16:08 AM 39.9717 -118.8036 336° Northwest 425 489 40,000  Level Oakland Center
Thu 02:18:09 AM 40.1853 -118.9325 335° Northwest 421 484 40,000  Level Oakland Center
Thu 02:20:10 AM 40.3972 -119.0600 335° Northwest 424 488 40,000  Level Oakland Center
Thu 02:21:10 AM 40.5025 -119.1233 335° Northwest 418 481 40,000  Level Oakland Center
Thu 02:22:11 AM 40.6086 -119.1864 336° Northwest 417 480 40,000  Level Oakland Center
Thu 02:23:11 AM 40.7136 -119.2508 335° Northwest 417 480 40,000  Level Oakland Center
Thu 02:24:12 AM 40.8125 -119.3117 335° Northwest 418 481 40,000  Level Oakland Center
Thu 02:25:12 AM 40.9314 -119.3817 336° Northwest 420 483 40,000  Level Oakland Center
Thu 02:26:12 AM 41.0314 -119.4442 335° Northwest 416 479 40,000  Level Oakland Center
Thu 02:27:13 AM 41.1442 -119.5136 335° Northwest 414 476 40,000  Level Oakland Center
Thu 02:28:14 AM 41.2453 -119.5786 334° Northwest 406 467 40,000  Level Seattle Center
Thu 02:29:14 AM 41.3475 -119.6419 335° Northwest 406 467 40,000  Level Oakland Center
Thu 02:30:14 AM 41.4503 -119.7036 336° Northwest 406 467 40,000  Level Oakland Center
Thu 02:31:15 AM 41.5567 -119.7667 336° Northwest 412 474 40,000  Level Seattle Center
Thu 02:32:16 AM 41.6600 -119.8325 335° Northwest 410 472 40,000  Level Seattle Center
Thu 02:33:15 AM 41.7603 -119.8972 334° Northwest 412 474 40,000  Level Oakland Center
Thu 02:34:16 AM 41.8617 -119.9642 334° Northwest 407 468 40,000  Level Oakland Center
Thu 02:35:16 AM 41.9656 -120.0267 336° Northwest 410 472 40,000  Level Oakland Center
Thu 02:36:17 AM 42.0669 -120.0925 334° Northwest 406 467 40,000  Level Seattle Center
Thu 02:37:18 AM 42.1692 -120.1575 335° Northwest 409 471 40,000  Level Seattle Center
Thu 02:38:18 AM 42.2731 -120.2214 336° Northwest 412 474 40,000  Level Seattle Center
Thu 02:39:19 AM 42.3742 -120.2869 334° Northwest 409 471 40,000  Level Seattle Center
Thu 02:40:19 AM 42.4753 -120.3514 335° Northwest 405 466 40,000  Level Seattle Center
Thu 02:41:19 AM 42.5750 -120.4169 334° Northwest 400 460 40,000  Level Seattle Center
Thu 02:42:20 AM 42.6750 -120.4817 335° Northwest 400 460 40,000  Level Seattle Center
Thu 02:43:20 AM 42.7758 -120.5469 335° Northwest 402 463 40,000  Level Seattle Center
Thu 02:44:20 AM 42.8753 -120.6111 335° Northwest 399 459 40,000  Level Seattle Center
Thu 02:45:21 AM 42.9750 -120.6775 334° Northwest 399 459 40,000  Level Seattle Center
Thu 02:46:21 AM 43.0747 -120.7419 335° Northwest 399 459 40,000  Level Seattle Center
Thu 02:47:21 AM 43.1708 -120.8036 335° Northwest 388 447 40,000  Level Seattle Center
Thu 02:48:22 AM 43.2686 -120.8689 334° Northwest 390 449 40,000  Level Seattle Center
Thu 02:49:22 AM 43.3681 -120.9372 333° Northwest 398 458 40,000  Level Seattle Center
Thu 02:50:22 AM 43.4656 -121.0019 334° Northwest 393 452 40,000  Level Seattle Center
Thu 02:51:23 AM 43.5658 -121.0686 334° Northwest 393 452 40,000  Level Seattle Center
Thu 02:52:23 AM 43.6631 -121.1339 334° Northwest 394 453 40,000  Level Seattle Center
Thu 02:53:23 AM 43.7625 -121.2008 334° Northwest 397 457 40,000  Level Seattle Center
Thu 02:54:24 AM 43.8658 -121.2700 334° Northwest 400 460 40,000  Level Seattle Center
Thu 02:55:24 AM 43.9672 -121.3397 334° Northwest 403 464 40,000  Level Seattle Center
Thu 02:56:24 AM 44.0694 -121.4086 334° Northwest 404 465 40,000  Level Seattle Center
Thu 02:57:24 AM 44.1706 -121.4761 334° Northwest 399 459 40,000  Level Seattle Center
Thu 02:58:25 AM 44.2706 -121.5453 334° Northwest 396 456 40,000  Level Seattle Center
Thu 02:59:25 AM 44.3717 -121.6153 334° Northwest 400 460 40,000  Level Seattle Center
Thu 03:00:25 AM 44.4719 -121.6844 334° Northwest 399 459 40,000  Level Seattle Center
Thu 03:01:26 AM 44.5725 -121.7536 334° Northwest 401 461 40,000  Level Seattle Center
Thu 03:02:26 AM 44.6692 -121.8211 334° Northwest 392 451 40,000  Level Seattle Center
Thu 03:03:26 AM 44.7658 -121.8894 333° Northwest 389 448 40,000  Level Seattle Center
Thu 03:04:27 AM 44.8747 -121.9653 334° Northwest 395 455 40,000  Level Seattle Center
Thu 03:05:27 AM 44.9589 -122.0256 333° Northwest 393 452 40,000  Level Seattle Center
Thu 03:06:27 AM 45.0539 -122.0928 333° Northwest 387 445 40,000  Level Seattle Center
Thu 03:07:27 AM 45.1486 -122.1614 333° Northwest 386 444 40,000  Level Seattle Center
Thu 03:08:28 AM 45.2442 -122.2281 334° Northwest 385 443 40,000  Level Seattle Center
Thu 03:09:28 AM 45.3381 -122.2956 333° Northwest 382 440 40,000  Level Seattle Center
Thu 03:10:28 AM 45.4311 -122.3633 333° Northwest 380 437 40,000  Level Seattle Center
Thu 03:11:28 AM 45.5442 -122.4450 333° Northwest 380 437 40,000  Level Seattle Center
Thu 03:12:29 AM 45.6383 -122.5133 333° Northwest 382 440 40,000 -198 Level Seattle Center
Thu 03:13:29 AM 45.7347 -122.5808 334° Northwest 387 445 39,600 -950 Descending Seattle Center
Thu 03:14:29 AM 45.8358 -122.6142 347° North 375 432 38,100 -2,050 Descending Seattle Center
Thu 03:15:29 AM 45.9322 -122.6386 350° North 357 411 35,500 -2,777 Descending Seattle Center
Thu 03:16:30 AM 46.0278 -122.6631 350° North 351 404 32,500 -2,727 Descending Seattle Center
Thu 03:17:30 AM 46.1269 -122.6850 351° North 360 414 30,000 -2,300 Descending Seattle Center
Thu 03:18:30 AM 46.2142 -122.7036 352° North 357 411 27,900 -2,200 Descending Seattle Center
Thu 03:19:30 AM 46.3067 -122.7211 353° North 342 394 25,600 -2,350 Descending Seattle Center
Thu 03:20:30 AM 46.4006 -122.7222 360° North 341 392 23,200 -2,281 Descending Seattle Center
Thu 03:21:31 AM 46.4908 -122.7178 North 330 380 21,000 -2,479 Descending Seattle Center
Thu 03:22:31 AM 46.6006 -122.7125 North 331 381 18,200 -2,510 Descending Seattle Center
Thu 03:23:09 AM 46.6550 -122.7111 North 327 376 16,900 -2,200 Descending Seattle Center
Thu 03:23:31 AM 46.6894 -122.7094 North 323 372 16,000 -2,341 Descending Seattle Center
Thu 03:24:31 AM 46.7753 -122.7058 North 311 358 13,700 -2,050 Descending Seattle Center
Thu 03:25:31 AM 46.8503 -122.6608 22° Northeast 304 350 11,900 -1,785 Descending Seattle Center
Thu 03:26:32 AM 46.9089 -122.5792 44° Northeast 296 341 10,100 -1,421 Descending Seattle Center
Thu 03:26:47 AM 46.9233 -122.5606 41° Northeast 284 327 10,100 -1,000 Level Seattle Center
Thu 03:27:32 AM 46.9606 -122.5100 43° Northeast 257 296 9,100 -1,475 Descending Seattle Center
Thu 03:27:48 AM 46.9750 -122.4936 38° Northeast 244 281 8,600 -1,100 Descending Seattle Center
Thu 03:28:32 AM 47.0122 -122.4439 42° Northeast 250 288 8,000 -1,091 Descending Seattle Center
Thu 03:28:54 AM 47.0367 -122.4211 32° Northeast 242 278 7,400 -1,300 Descending Seattle Center
Thu 03:29:32 AM 47.0694 -122.3953 28° Northeast 243 280 6,700 -1,082 Descending Seattle Center
Thu 03:29:55 AM 47.0933 -122.3739 31° Northeast 237 273 6,300 -800 Descending Seattle Center
Thu 03:30:32 AM 47.1253 -122.3483 29° Northeast 235 270 5,900 -889 Descending Seattle Center
Thu 03:30:49 AM 47.1467 -122.3383 18° North 225 259 5,500 -800 Descending Seattle Center
Thu 03:31:32 AM 47.1808 -122.3214 19° North 215 247 5,100 -492 Descending Seattle Center
Thu 03:31:50 AM 47.2008 -122.3150 12° North 194 223 5,000 -787 Descending Seattle Center
Thu 03:32:33 AM 47.2308 -122.3122 North 186 214 4,300 -984 Descending Seattle Center
Thu 03:32:51 AM 47.2514 -122.3133 358° North 182 209 4,000 -900 Descending Seattle Center
Thu 03:33:33 AM 47.2828 -122.3125 North 186 214 3,400 -1,000 Descending Seattle Center
Thu 03:33:51 AM 47.3028 -122.3144 356° North 184 212 3,000 -1,000 Descending Seattle Center
Thu 03:34:33 AM 47.3322 -122.3122 North 181 208 2,400 -984 Descending Seattle Center
Thu 03:34:52 AM 47.3517 -122.3139 357° North 174 200 2,000 -800 Descending Seattle Center
Thu 03:35:33 AM 47.3739 -122.3122 North 155 178 1,600 -600 Descending Seattle Center
Thu 03:35:52 AM 47.3872 -122.3139 355° North 127 146 1,400 -600 Descending Seattle Center
Thu 03:36:33 AM 47.4047 -122.3119 North 115 132 1,000 -689 Descending Seattle Center
Thu 03:36:53 AM 47.4200 -122.3122 359° North 105 121 700 -600 Descending Seattle Center
Thu 03:37:33 AM 47.4414 -122.3114 North 116 133 400 -450 Descending Seattle Center
Thu 03:39:00 AM 47.4333 -122.3000 North  Level FlightAware Approximate

Login

Don't have an account? Register now (free) for customized features, flight alerts, and more!